Aquagenie — D5GY8 — position and weather

sailwx.info

Track history (hours):
 
Tides and Currents Weather Stations Pressure Air Temp Water Temp Dewpoint Dewpoint Depression Visibility Wind Speed Wind Dir Waves Ship Positions

Aquagenie

Last reported at 2018-May-15 06:10 UTC. Time now 2018-Jun-24 07:08 UTC.
Position N 53°06' E 004°15'.
Warning: this ship's position is 40 days out of date.

Length 289 m; draft 7.9 m.

Type: Cargo ship. MMSI: 636016607.

Date/timePositionNaut miles runAvg speedWind from/ knotsBaromVisibWave heightAir tempDewpointWater temp
2018-May-15 06:10N 53°06' E 004°15'  
2018-May-11 15:19S 20°07' E 118°38'0 0.0
2018-May-11 14:50S 20°07' E 118°38'0 0.1
2018-May-11 12:37S 20°07' E 118°38'0 0.0
2018-May-11 11:13S 20°07' E 118°38'0 0.0
2018-May-11 08:07S 20°07' E 118°38'0 0.0
2018-May-11 07:43S 20°07' E 118°38'0 0.0
2018-May-11 07:19S 20°07' E 118°38'0 0.0
2018-May-11 05:31S 20°07' E 118°38'0 0.1
2018-May-11 05:25S 20°07' E 118°38'8 0.9
2018-May-10 20:30S 20°01' E 118°31'510.9
2018-May-10 20:00S 19°57' E 118°28'610.9
2018-May-10 19:28S 19°51' E 118°27'511.1
2018-May-10 18:59S 19°46' E 118°26'711.0
2018-May-10 18:22S 19°39' E 118°24'510.9
2018-May-10 17:53S 19°34' E 118°23'411.0
2018-May-10 17:30S 19°30' E 118°21'911.2
2018-May-10 16:43S 19°22' E 118°19'311.1
2018-May-10 16:29S 19°19' E 118°18'611.2
2018-May-10 15:57S 19°13' E 118°17'1111.2
2018-May-10 14:59S 19°03' E 118°14'1511.1
2018-May-10 13:36S 18°48' E 118°10'111.5
2018-May-10 13:30S 18°47' E 118°09'1610.9
2018-May-10 12:02S 18°31' E 118°05'010.7
2018-May-10 11:59S 18°31' E 118°05'510.7
2018-May-10 11:30S 18°26' E 118°04'9810.5
2018-May-10 02:08S 16°50' E 117°41'310.5
2018-May-10 01:51S 16°47' E 117°40'4710.5
2018-May-09 21:20S 16°01' E 117°28'410.6
2018-May-09 20:57S 15°57' E 117°27'510.5
2018-May-09 20:30S 15°52' E 117°26'  
Track history (hours):
 
Tides and Currents Weather Stations Pressure Air Temp Water Temp Dewpoint Dewpoint Depression Visibility Wind Speed Wind Dir Waves Ship Positions

Aquagenie

Last reported at 2018-May-15 06:10 UTC. Time now 2018-Jun-24 07:08 UTC.
Position N 53°06' E 004°15'.
Warning: this ship's position is 40 days out of date.

Length 289 m; draft 7.9 m.

Type: Cargo ship. MMSI: 636016607.

Date/timePositionNaut miles runAvg speedWind from/ knotsBaromVisibWave heightAir tempDewpointWater temp
2018-May-15 06:10N 53°06' E 004°15'  
2018-May-11 15:19S 20°07' E 118°38'0 0.0
2018-May-11 14:50S 20°07' E 118°38'0 0.1
2018-May-11 12:37S 20°07' E 118°38'0 0.0
2018-May-11 11:13S 20°07' E 118°38'0 0.0
2018-May-11 08:07S 20°07' E 118°38'0 0.0
2018-May-11 07:43S 20°07' E 118°38'0 0.0
2018-May-11 07:19S 20°07' E 118°38'0 0.0
2018-May-11 05:31S 20°07' E 118°38'0 0.1
2018-May-11 05:25S 20°07' E 118°38'8 0.9
2018-May-10 20:30S 20°01' E 118°31'510.9
2018-May-10 20:00S 19°57' E 118°28'610.9
2018-May-10 19:28S 19°51' E 118°27'511.1
2018-May-10 18:59S 19°46' E 118°26'711.0
2018-May-10 18:22S 19°39' E 118°24'510.9
2018-May-10 17:53S 19°34' E 118°23'411.0
2018-May-10 17:30S 19°30' E 118°21'911.2
2018-May-10 16:43S 19°22' E 118°19'311.1
2018-May-10 16:29S 19°19' E 118°18'611.2
2018-May-10 15:57S 19°13' E 118°17'1111.2
2018-May-10 14:59S 19°03' E 118°14'1511.1
2018-May-10 13:36S 18°48' E 118°10'111.5
2018-May-10 13:30S 18°47' E 118°09'1610.9
2018-May-10 12:02S 18°31' E 118°05'010.7
2018-May-10 11:59S 18°31' E 118°05'510.7
2018-May-10 11:30S 18°26' E 118°04'9810.5
2018-May-10 02:08S 16°50' E 117°41'310.5
2018-May-10 01:51S 16°47' E 117°40'4710.5
2018-May-09 21:20S 16°01' E 117°28'410.6
2018-May-09 20:57S 15°57' E 117°27'510.5
2018-May-09 20:30S 15°52' E 117°26'  

Dump ship's entire track history